Time;durP1;ratioP1;P1;durP2;ratioP2;P2;SDS_P1;SDS_P2;PMS_P1;PMS_P2;Temp;Humidity;BMP_temperature;BMP_pressure;BME280_temperature;BME280_humidity;BME280_pressure;Samples;Min_cycle;Max_cycle;Signal;HPM_P1;HPM_P2
2023/07/30 00:00:22;;;;;;;10.85;4.25;;;;;;;;;;6275635;22;20738;-66
2023/07/30 00:02:48;;;;;;;15.50;4.53;;;;;;;;;;6276852;22;20313;-64
2023/07/30 00:05:14;;;;;;;20.45;5.70;;;;;;;;;;6248854;22;20016;-64
2023/07/30 00:07:40;;;;;;;16.77;4.85;;;;;;;;;;6276013;22;20022;-64
2023/07/30 00:10:07;;;;;;;17.88;4.90;;;;;;;;;;6223310;22;20141;-65
2023/07/30 00:12:33;;;;;;;15.18;5.20;;;;;;;;;;6276665;22;20066;-65
2023/07/30 00:14:59;;;;;;;19.73;4.38;;;;;;;;;;6247945;22;20094;-65
2023/07/30 00:17:25;;;;;;;14.65;4.15;;;;;;;;;;6276592;22;20328;-64
2023/07/30 00:19:51;;;;;;;20.83;5.25;;;;;;;;;;6249311;22;20459;-65
2023/07/30 00:22:17;;;;;;;16.02;5.70;;;;;;;;;;6248233;22;20020;-65
2023/07/30 00:24:43;;;;;;;17.23;4.80;;;;;;;;;;6223020;22;20099;-64
2023/07/30 00:27:09;;;;;;;22.23;6.07;;;;;;;;;;6274962;22;20115;-64
2023/07/30 00:29:35;;;;;;;25.35;5.47;;;;;;;;;;6223786;22;20012;-65
2023/07/30 00:32:01;;;;;;;19.40;5.45;;;;;;;;;;6248950;22;20016;-64
2023/07/30 00:34:29;;;;;;;14.40;4.65;;;;;;;;;;6248753;22;20102;-64
2023/07/30 00:36:55;;;;;;;21.30;5.20;;;;;;;;;;6248565;22;20032;-65
2023/07/30 00:39:21;;;;;;;18.75;5.78;;;;;;;;;;6275672;22;20022;-65
2023/07/30 00:41:47;;;;;;;20.90;4.78;;;;;;;;;;6274755;22;20020;-65
2023/07/30 00:44:13;;;;;;;17.80;5.63;;;;;;;;;;6223177;22;20015;-65
2023/07/30 00:46:39;;;;;;;22.38;5.18;;;;;;;;;;6275964;22;20019;-65
2023/07/30 00:49:06;;;;;;;14.55;4.57;;;;;;;;;;6275685;22;20066;-64
2023/07/30 00:51:33;;;;;;;21.13;5.85;;;;;;;;;;6274465;22;20020;-65
2023/07/30 00:53:59;;;;;;;15.52;5.82;;;;;;;;;;6248699;22;20027;-65
2023/07/30 00:56:26;;;;;;;20.73;5.20;;;;;;;;;;6246946;22;20092;-64
2023/07/30 00:58:52;;;;;;;19.15;5.32;;;;;;;;;;6221134;22;20027;-65
2023/07/30 01:01:19;;;;;;;22.83;4.95;;;;;;;;;;6222841;22;20024;-64
2023/07/30 01:03:45;;;;;;;21.42;7.00;;;;;;;;;;6276060;22;20020;-64
2023/07/30 01:06:11;;;;;;;19.88;6.32;;;;;;;;;;6274562;22;20023;-64
2023/07/30 01:08:38;;;;;;;24.23;5.38;;;;;;;;;;6275624;22;20058;-64
2023/07/30 01:11:08;;;;;;;16.08;4.88;;;;;;;;;;6248343;22;20051;-64
2023/07/30 01:13:36;;;;;;;18.13;4.90;;;;;;;;;;6248869;22;20012;-65
2023/07/30 01:16:03;;;;;;;22.83;6.38;;;;;;;;;;6221163;22;20030;-65
2023/07/30 01:18:29;;;;;;;18.75;5.00;;;;;;;;;;6247940;22;20030;-65
2023/07/30 01:20:58;;;;;;;20.58;4.82;;;;;;;;;;6248220;22;20020;-64
2023/07/30 01:23:25;;;;;;;14.45;5.00;;;;;;;;;;6248548;22;20023;-64
2023/07/30 01:25:58;;;;;;;20.35;5.30;;;;;;;;;;6223039;22;20055;-64
2023/07/30 01:28:24;;;;;;;20.08;4.93;;;;;;;;;;6248587;22;20012;-65
2023/07/30 01:30:50;;;;;;;23.60;4.72;;;;;;;;;;6223421;22;20022;-64
2023/07/30 01:33:16;;;;;;;20.63;5.05;;;;;;;;;;6248432;22;20060;-65
2023/07/30 01:35:43;;;;;;;26.13;4.90;;;;;;;;;;6274595;22;20019;-64
2023/07/30 01:38:10;;;;;;;15.95;4.10;;;;;;;;;;6247531;22;20051;-65
2023/07/30 01:40:36;;;;;;;22.50;4.88;;;;;;;;;;6223162;22;20444;-66
2023/07/30 01:43:02;;;;;;;22.20;4.70;;;;;;;;;;6275092;22;20383;-64
2023/07/30 01:45:28;;;;;;;19.42;5.18;;;;;;;;;;6217606;23;20369;-65
2023/07/30 01:47:54;;;;;;;16.15;4.63;;;;;;;;;;6193353;23;20024;-65
2023/07/30 01:50:20;;;;;;;21.70;4.75;;;;;;;;;;6217236;23;20024;-64
2023/07/30 01:52:46;;;;;;;19.05;4.28;;;;;;;;;;6192066;23;20503;-65
2023/07/30 01:55:12;;;;;;;27.45;4.95;;;;;;;;;;6244154;23;20012;-64
2023/07/30 01:57:38;;;;;;;21.40;4.13;;;;;;;;;;6244541;23;20016;-64
2023/07/30 02:00:05;;;;;;;24.02;4.93;;;;;;;;;;6192576;23;20020;-65
2023/07/30 02:02:31;;;;;;;24.35;5.32;;;;;;;;;;6244541;23;20055;-65
2023/07/30 02:04:57;;;;;;;21.58;3.95;;;;;;;;;;6243618;23;20051;-65
2023/07/30 02:07:23;;;;;;;20.23;4.82;;;;;;;;;;6217854;23;20073;-65
2023/07/30 02:09:49;;;;;;;27.27;4.75;;;;;;;;;;6192812;23;20016;-65
2023/07/30 02:12:15;;;;;;;23.85;4.72;;;;;;;;;;6243650;23;20024;-64
2023/07/30 02:14:41;;;;;;;17.63;3.47;;;;;;;;;;6244165;23;20107;-65
2023/07/30 02:17:07;;;;;;;24.27;4.40;;;;;;;;;;6244425;23;20027;-65
2023/07/30 02:19:33;;;;;;;19.48;3.70;;;;;;;;;;6244105;23;20012;-64
2023/07/30 02:21:59;;;;;;;19.25;3.92;;;;;;;;;;6244214;23;20090;-64
2023/07/30 02:24:25;;;;;;;18.98;3.90;;;;;;;;;;6243951;23;20024;-65
2023/07/30 02:26:51;;;;;;;19.77;4.53;;;;;;;;;;6244351;23;20023;-64
2023/07/30 02:29:17;;;;;;;20.90;4.78;;;;;;;;;;6244068;23;20099;-64
2023/07/30 02:31:43;;;;;;;20.10;5.05;;;;;;;;;;6217882;23;20024;-65
2023/07/30 02:34:09;;;;;;;29.75;5.40;;;;;;;;;;6216434;23;20020;-65
2023/07/30 02:36:36;;;;;;;26.23;4.57;;;;;;;;;;6244749;23;20038;-65
2023/07/30 02:39:02;;;;;;;23.20;4.53;;;;;;;;;;6244153;23;20019;-64
2023/07/30 02:41:30;;;;;;;25.40;4.97;;;;;;;;;;6242868;23;20437;-65
2023/07/30 02:43:57;;;;;;;19.98;4.45;;;;;;;;;;6223765;23;20024;-65
2023/07/30 02:46:23;;;;;;;20.27;4.63;;;;;;;;;;6244414;23;20031;-64
2023/07/30 02:48:49;;;;;;;26.88;4.68;;;;;;;;;;6243943;23;20019;-65
2023/07/30 02:51:15;;;;;;;18.23;4.68;;;;;;;;;;6243684;23;20344;-64
2023/07/30 02:53:44;;;;;;;15.85;3.72;;;;;;;;;;6242286;23;20078;-66
2023/07/30 02:56:10;;;;;;;16.58;4.57;;;;;;;;;;6244180;22;20020;-65
2023/07/30 02:58:36;;;;;;;16.27;4.28;;;;;;;;;;6242725;23;20052;-65
2023/07/30 03:01:06;;;;;;;27.38;4.68;;;;;;;;;;6243626;23;20020;-65
2023/07/30 03:03:32;;;;;;;18.15;4.03;;;;;;;;;;6244224;22;20047;-65
2023/07/30 03:05:58;;;;;;;25.85;4.38;;;;;;;;;;6217285;23;20020;-63
2023/07/30 03:08:24;;;;;;;28.95;5.50;;;;;;;;;;6245471;23;20023;-65
2023/07/30 03:10:50;;;;;;;22.15;4.80;;;;;;;;;;6245833;23;20020;-65
2023/07/30 03:13:18;;;;;;;23.80;5.05;;;;;;;;;;6244484;23;20039;-65
2023/07/30 03:15:44;;;;;;;21.23;4.90;;;;;;;;;;6244722;23;20027;-65
2023/07/30 03:18:10;;;;;;;22.17;4.90;;;;;;;;;;6217640;23;20080;-65
2023/07/30 03:20:36;;;;;;;24.35;4.07;;;;;;;;;;6244762;23;20080;-65
2023/07/30 03:23:02;;;;;;;23.60;5.38;;;;;;;;;;6243441;23;20070;-65
2023/07/30 03:25:28;;;;;;;16.10;4.75;;;;;;;;;;6219640;23;20016;-64
2023/07/30 03:27:54;;;;;;;21.02;4.43;;;;;;;;;;6245357;23;20048;-64
2023/07/30 03:30:20;;;;;;;27.00;6.55;;;;;;;;;;6245365;23;20020;-64
2023/07/30 03:32:46;;;;;;;22.52;4.95;;;;;;;;;;6245706;23;20066;-65
2023/07/30 03:35:12;;;;;;;22.95;5.00;;;;;;;;;;6245895;23;20020;-64
2023/07/30 03:37:38;;;;;;;29.63;4.88;;;;;;;;;;6244861;23;20016;-65
2023/07/30 03:40:05;;;;;;;18.08;4.82;;;;;;;;;;6243183;23;20012;-65
2023/07/30 03:42:31;;;;;;;22.35;4.45;;;;;;;;;;6219237;23;20384;-65
2023/07/30 03:44:57;;;;;;;21.00;4.53;;;;;;;;;;6269174;22;20028;-65
2023/07/30 03:47:23;;;;;;;16.77;4.78;;;;;;;;;;6276015;22;20020;-64
2023/07/30 03:49:49;;;;;;;22.20;5.13;;;;;;;;;;6249130;22;20012;-65
2023/07/30 03:52:17;;;;;;;24.05;4.97;;;;;;;;;;6276503;22;20012;-65
2023/07/30 03:54:45;;;;;;;24.67;4.97;;;;;;;;;;6249227;22;20020;-64
2023/07/30 03:57:12;;;;;;;25.00;5.80;;;;;;;;;;6223789;22;20023;-64
2023/07/30 03:59:40;;;;;;;26.98;6.13;;;;;;;;;;6222888;22;20383;-64
2023/07/30 04:02:07;;;;;;;29.00;7.70;;;;;;;;;;6223140;22;20019;-64
2023/07/30 04:04:33;;;;;;;28.67;5.50;;;;;;;;;;6276186;22;20031;-65
2023/07/30 04:06:59;;;;;;;24.73;5.05;;;;;;;;;;6249120;22;20023;-64
2023/07/30 04:09:25;;;;;;;26.60;4.88;;;;;;;;;;6276512;22;20016;-65
2023/07/30 04:11:52;;;;;;;23.95;4.07;;;;;;;;;;6276511;22;20070;-64
2023/07/30 04:14:18;;;;;;;20.05;4.43;;;;;;;;;;6222273;22;20110;-64
2023/07/30 04:16:46;;;;;;;19.00;4.57;;;;;;;;;;6249290;22;20079;-65
2023/07/30 04:19:13;;;;;;;19.45;4.18;;;;;;;;;;6223416;22;20027;-64
2023/07/30 04:21:39;;;;;;;25.02;5.32;;;;;;;;;;6249359;22;20095;-65
2023/07/30 04:24:05;;;;;;;20.65;4.40;;;;;;;;;;6248396;22;20468;-66
2023/07/30 04:26:31;;;;;;;18.88;4.75;;;;;;;;;;6223738;22;20016;-65
2023/07/30 04:28:58;;;;;;;20.17;4.32;;;;;;;;;;6275590;22;20104;-61
2023/07/30 04:31:24;;;;;;;21.50;4.95;;;;;;;;;;6276461;22;20030;-65
2023/07/30 04:33:50;;;;;;;20.77;5.25;;;;;;;;;;6274917;22;20515;-65
2023/07/30 04:36:16;;;;;;;21.50;4.43;;;;;;;;;;6223293;22;20444;-65
2023/07/30 04:38:42;;;;;;;19.92;4.38;;;;;;;;;;6276412;22;20015;-64
2023/07/30 04:41:08;;;;;;;22.35;4.00;;;;;;;;;;6275995;22;20098;-64
2023/07/30 04:43:34;;;;;;;23.88;4.30;;;;;;;;;;6222362;22;20030;-64
2023/07/30 04:46:00;;;;;;;20.50;4.65;;;;;;;;;;6247021;22;20467;-64
2023/07/30 04:48:26;;;;;;;26.77;5.32;;;;;;;;;;6247318;22;20324;-64
2023/07/30 04:50:52;;;;;;;20.58;4.88;;;;;;;;;;6274206;22;20387;-64
2023/07/30 04:53:20;;;;;;;17.77;4.68;;;;;;;;;;6273492;22;20028;-64
2023/07/30 04:55:46;;;;;;;20.25;4.75;;;;;;;;;;6222285;22;20047;-64
2023/07/30 04:58:12;;;;;;;21.88;5.65;;;;;;;;;;6273660;22;20063;-63
2023/07/30 05:00:38;;;;;;;24.20;5.38;;;;;;;;;;6273604;22;20019;-64
2023/07/30 05:03:04;;;;;;;20.73;5.40;;;;;;;;;;6246794;22;20520;-64
2023/07/30 05:05:30;;;;;;;18.70;5.40;;;;;;;;;;6247406;22;20016;-64
2023/07/30 05:07:56;;;;;;;21.20;4.78;;;;;;;;;;6246748;22;20020;-64
2023/07/30 05:10:23;;;;;;;21.92;4.65;;;;;;;;;;6221574;22;20020;-65
2023/07/30 05:12:49;;;;;;;25.70;4.93;;;;;;;;;;6274019;22;20026;-64
2023/07/30 05:15:15;;;;;;;22.00;5.20;;;;;;;;;;6274155;22;20030;-65
2023/07/30 05:17:41;;;;;;;23.10;4.45;;;;;;;;;;6274415;22;20026;-64
2023/07/30 05:20:07;;;;;;;25.05;4.30;;;;;;;;;;6246435;22;20441;-64
2023/07/30 05:22:34;;;;;;;17.30;3.50;;;;;;;;;;6222109;22;20024;-65
2023/07/30 05:25:00;;;;;;;21.90;4.05;;;;;;;;;;6273120;22;20448;-64
2023/07/30 05:27:28;;;;;;;17.08;4.30;;;;;;;;;;6273978;22;20035;-65
2023/07/30 05:29:55;;;;;;;17.90;4.05;;;;;;;;;;6220482;22;20379;-63
2023/07/30 05:32:21;;;;;;;23.02;4.75;;;;;;;;;;6246896;22;20439;-64
2023/07/30 05:34:47;;;;;;;14.25;3.13;;;;;;;;;;6222039;22;20059;-64
2023/07/30 05:37:13;;;;;;;19.73;3.55;;;;;;;;;;6245910;22;20016;-64
2023/07/30 05:39:39;;;;;;;17.23;3.17;;;;;;;;;;6273870;22;20023;-64
2023/07/30 05:42:05;;;;;;;18.23;4.25;;;;;;;;;;6273448;22;20396;-64
2023/07/30 05:44:31;;;;;;;15.48;3.63;;;;;;;;;;6198590;22;1138597;-65
2023/07/30 05:46:58;;;;;;;21.40;4.95;;;;;;;;;;6274638;22;20398;-64
2023/07/30 05:49:27;;;;;;;16.73;3.55;;;;;;;;;;6274852;22;20433;-64
2023/07/30 05:51:53;;;;;;;20.05;4.20;;;;;;;;;;6248623;22;20012;-64
2023/07/30 05:54:19;;;;;;;22.15;3.63;;;;;;;;;;6248213;22;20340;-64
2023/07/30 05:56:45;;;;;;;16.80;4.32;;;;;;;;;;6275082;22;20018;-65
2023/07/30 05:59:11;;;;;;;16.50;4.47;;;;;;;;;;6273791;22;20375;-63
2023/07/30 06:01:37;;;;;;;20.98;4.05;;;;;;;;;;6275505;22;20020;-65
2023/07/30 06:04:03;;;;;;;21.30;4.05;;;;;;;;;;6275194;22;20020;-64
2023/07/30 06:06:30;;;;;;;23.88;4.18;;;;;;;;;;6222326;22;20076;-65
2023/07/30 06:08:56;;;;;;;21.75;3.78;;;;;;;;;;6247984;22;20038;-64
2023/07/30 06:11:22;;;;;;;22.63;4.05;;;;;;;;;;6274615;22;20030;-64
2023/07/30 06:13:48;;;;;;;18.65;4.28;;;;;;;;;;6248141;22;20019;-63
2023/07/30 06:16:15;;;;;;;19.60;3.90;;;;;;;;;;6274792;22;20027;-65
2023/07/30 06:18:41;;;;;;;15.75;3.17;;;;;;;;;;6247963;22;20020;-64
2023/07/30 06:21:07;;;;;;;23.70;3.78;;;;;;;;;;6272802;22;20463;-61
2023/07/30 06:23:33;;;;;;;16.20;5.03;;;;;;;;;;6275037;22;20314;-70
2023/07/30 06:25:59;;;;;;;19.08;3.65;;;;;;;;;;6271975;22;20516;-68
2023/07/30 06:28:25;;;;;;;19.67;3.80;;;;;;;;;;6247740;22;20019;-70
2023/07/30 06:30:51;;;;;;;18.02;3.67;;;;;;;;;;6275311;22;20038;-70
2023/07/30 06:33:17;;;;;;;20.75;3.38;;;;;;;;;;6274925;22;20016;-70
2023/07/30 06:35:44;;;;;;;12.95;3.42;;;;;;;;;;6247463;22;20459;-70
2023/07/30 06:38:10;;;;;;;11.73;3.67;;;;;;;;;;6274249;22;20112;-69
2023/07/30 06:40:36;;;;;;;19.60;3.17;;;;;;;;;;6273972;22;20019;-70
2023/07/30 06:43:02;;;;;;;10.70;2.60;;;;;;;;;;6274715;22;20051;-70
2023/07/30 06:45:28;;;;;;;8.82;2.65;;;;;;;;;;6248149;22;20381;-71
2023/07/30 06:47:54;;;;;;;12.13;2.35;;;;;;;;;;6222046;22;20022;-69
2023/07/30 06:50:20;;;;;;;11.57;2.08;;;;;;;;;;6274459;22;20019;-68
2023/07/30 06:52:46;;;;;;;11.13;1.77;;;;;;;;;;6248292;22;20051;-70
2023/07/30 06:55:12;;;;;;;7.38;1.88;;;;;;;;;;6246957;22;20361;-71
2023/07/30 06:57:38;;;;;;;9.82;2.35;;;;;;;;;;6274582;22;20016;-70
2023/07/30 07:00:05;;;;;;;9.70;2.15;;;;;;;;;;6274762;22;20069;-71
2023/07/30 07:02:32;;;;;;;7.82;1.60;;;;;;;;;;6247947;22;20099;-69
2023/07/30 07:04:58;;;;;;;11.57;2.15;;;;;;;;;;6247638;22;20047;-64
2023/07/30 07:07:27;;;;;;;8.20;1.58;;;;;;;;;;6274573;22;20034;-68
2023/07/30 07:09:53;;;;;;;10.18;2.17;;;;;;;;;;6246237;22;20011;-70
2023/07/30 07:12:19;;;;;;;9.75;2.85;;;;;;;;;;6274120;22;20316;-70
2023/07/30 07:14:45;;;;;;;12.05;3.35;;;;;;;;;;6246385;22;20031;-69
2023/07/30 07:17:11;;;;;;;10.60;2.08;;;;;;;;;;6274073;22;20435;-68
2023/07/30 07:19:37;;;;;;;13.25;2.30;;;19.00;99.90;;;;;;6274878;22;20145;-69
2023/07/30 07:22:06;;;;;;;9.27;2.33;;;;;;;;;;6247434;22;20043;-69
2023/07/30 07:24:32;;;;;;;8.90;1.85;;;;;;;;;;6247211;22;20024;-70
2023/07/30 07:26:58;;;;;;;7.13;1.73;;;;;;;;;;6274434;22;20024;-65
2023/07/30 07:29:25;;;;;;;8.32;2.08;;;;;;;;;;6274832;22;20019;-68
2023/07/30 07:31:51;;;;;;;10.00;1.55;;;;;;;;;;6247581;22;20359;-70
2023/07/30 07:34:17;;;;;;;10.18;2.10;;;;;;;;;;6246974;22;20364;-68
2023/07/30 07:36:43;;;;;;;10.10;2.20;;;;;;;;;;6273021;22;20448;-69
2023/07/30 07:39:09;;;;;;;10.10;1.42;;;;;;;;;;6273431;22;20026;-68
2023/07/30 07:41:35;;;;;;;8.95;2.33;;;;;;;;;;6272972;22;20522;-67
2023/07/30 07:44:01;;;;;;;11.65;2.47;;;;;;;;;;6273232;22;20090;-67
2023/07/30 07:46:27;;;;;;;11.48;2.75;;;;;;;;;;6274267;22;20016;-67
2023/07/30 07:48:53;;;;;;;8.02;1.52;;;;;;;;;;6246341;22;20028;-67
2023/07/30 07:51:19;;;;;;;9.43;1.75;;;;;;;;;;6273541;22;20057;-67
2023/07/30 07:53:46;;;;;;;11.65;1.63;;;;;;;;;;6274201;22;20015;-67
2023/07/30 07:56:12;;;;;;;11.63;2.40;;;;;;;;;;6248795;22;20020;-67
2023/07/30 07:58:38;;;;;;;10.77;2.55;;;;;;;;;;6276149;22;20023;-67
2023/07/30 08:01:04;;;;;;;9.18;1.83;;;;;;;;;;6248777;22;20441;-67
2023/07/30 08:03:30;;;;;;;12.13;2.35;;;;;;;;;;6275811;22;20020;-68
2023/07/30 08:05:56;;;;;;;11.35;1.90;;;;;;;;;;6275801;22;20078;-69
2023/07/30 08:08:22;;;;;;;9.82;1.92;;;;;;;;;;6247840;22;20022;-67
2023/07/30 08:10:48;;;;;;;9.25;1.83;;;;;;;;;;6247260;22;20027;-67
2023/07/30 08:13:15;;;;;;;18.27;3.35;;;;;;;;;;6275537;22;20141;-61
2023/07/30 08:15:41;;;;;;;11.52;2.22;;;;;;;;;;6276512;22;20055;-67
2023/07/30 08:18:07;;;;;;;9.43;1.90;;;;;;;;;;6275447;22;20106;-66
2023/07/30 08:20:33;;;;;;;9.82;2.00;;;;;;;;;;6276276;22;20016;-64
2023/07/30 08:22:59;;;;;;;7.97;1.55;;;;;;;;;;6274934;22;20440;-64
2023/07/30 08:25:25;;;;;;;14.88;2.20;;;;;;;;;;6247720;22;20361;-63
2023/07/30 08:27:51;;;;;;;12.88;1.95;;;;;;;;;;6276197;22;20051;-63
2023/07/30 08:30:17;;;;;;;8.98;2.05;;;;;;;;;;6275334;22;20097;-63
2023/07/30 08:32:43;;;;;;;11.95;1.98;;;;;;;;;;6275586;22;20718;-64
2023/07/30 08:35:10;;;;;;;11.40;1.90;;;;;;;;;;6247561;22;20020;-66
2023/07/30 08:37:36;;;;;;;10.18;2.28;;;;;;;;;;6276019;22;20031;-63
2023/07/30 08:40:02;;;;;;;12.95;1.77;;;;;;;;;;6275746;22;20020;-64
2023/07/30 08:42:28;;;;;;;11.35;2.30;;;;;;;;;;6275767;22;20061;-63
2023/07/30 08:44:54;;;;;;;11.15;2.67;;;;;;;;;;6248348;22;20030;-64
2023/07/30 08:47:20;;;;;;;10.38;2.10;;;;;;;;;;6275552;22;20034;-62
2023/07/30 08:49:46;;;;;;;18.98;2.65;;;;;;;;;;6274430;22;20065;-63
2023/07/30 08:52:13;;;;;;;16.10;2.63;;;;;;;;;;6274922;22;20023;-64
2023/07/30 08:54:39;;;;;;;11.93;2.40;;;;;;;;;;6275526;22;20073;-63
2023/07/30 08:57:06;;;;;;;7.68;2.05;;;;;;;;;;6248365;22;20045;-62
2023/07/30 08:59:36;;;;;;;8.80;1.67;;;;;;;;;;6223387;22;20020;-62
2023/07/30 09:02:03;;;;;;;6.28;1.52;;;;;;;;;;6248260;22;20091;-62
2023/07/30 09:04:30;;;;;;;6.65;1.55;;;;;;;;;;6247331;22;20595;-62
2023/07/30 09:06:56;;;;;;;4.80;1.70;;;;;;;;;;6248089;22;20072;-61
2023/07/30 09:09:22;;;;;;;5.00;1.63;;;;;;;;;;6275066;22;20051;-61
2023/07/30 09:11:55;;;;;;;10.73;2.22;;;;;;;;;;6274825;22;20446;-61
2023/07/30 09:14:26;;;;;;;14.38;2.50;;;;;;;;;;6248808;22;20046;-61
2023/07/30 09:16:57;;;;;;;5.78;1.80;;;;;;;;;;6275236;22;20099;-62
2023/07/30 09:19:23;;;;;;;6.70;1.40;;;;;;;;;;6222640;22;20098;-62
2023/07/30 09:21:50;;;;;;;13.10;2.08;;;;;;;;;;6275422;22;20073;-62
2023/07/30 09:24:21;;;;;;;8.38;2.30;;;;;;;;;;6247501;22;20023;-62
2023/07/30 09:26:47;;;;;;;7.18;1.48;;;;;;;;;;6248198;22;20024;-61
2023/07/30 09:29:13;;;;;;;5.03;1.63;;;;;;;;;;6275342;22;20051;-62
2023/07/30 09:31:54;;;;;;;8.07;2.08;;;16.20;99.90;;;;;;6246665;22;20016;-61
2023/07/30 09:34:21;;;;;;;9.30;2.10;;;;;;;;;;6222294;22;20027;-62
2023/07/30 09:36:49;;;;;;;8.45;2.10;;;16.60;99.90;;;;;;6275660;22;20034;-62
2023/07/30 09:39:25;;;;;;;7.00;2.30;;;;;;;;;;6222333;22;20024;-61
2023/07/30 09:41:52;;;;;;;10.45;2.08;;;;;;;;;;6223262;22;20081;-61
2023/07/30 09:44:20;;;;;;;12.50;2.42;;;17.40;99.90;;;;;;6274814;22;20444;-61
2023/07/30 09:46:49;;;;;;;9.75;1.83;;;;;;;;;;6223344;22;20066;-62
2023/07/30 09:49:16;;;;;;;10.77;2.50;;;;;;;;;;6246976;22;20012;-61
2023/07/30 09:51:45;;;;;;;10.77;2.28;;;;;;;;;;6274095;22;20016;-62
2023/07/30 09:54:14;;;;;;;5.72;1.50;;;17.70;99.90;;;;;;6274701;22;20023;-62
2023/07/30 09:56:41;;;;;;;8.68;1.48;;;18.30;99.90;;;;;;6275477;22;20090;-62
2023/07/30 09:59:08;;;;;;;9.15;1.80;;;18.20;99.90;;;;;;6275013;22;20016;-62
2023/07/30 10:01:46;;;;;;;7.90;1.83;;;;;;;;;;6274947;22;20020;-62
2023/07/30 10:04:12;;;;;;;9.40;1.88;;;18.10;99.90;;;;;;6274076;22;20066;-62
2023/07/30 10:06:41;;;;;;;10.20;1.95;;;;;;;;;;6275342;22;20020;-62
2023/07/30 10:09:09;;;;;;;13.45;2.13;;;;;;;;;;6247863;22;20051;-62
2023/07/30 10:11:36;;;;;;;8.35;1.20;;;;;;;;;;6275333;22;20027;-63
2023/07/30 10:14:02;;;;;;;12.00;2.00;;;;;;;;;;6247550;22;20482;-62
2023/07/30 10:16:29;;;;;;;10.57;1.77;;;;;;;;;;6222234;22;20444;-62
2023/07/30 10:18:59;;;;;;;11.00;1.70;;;;;;;;;;6274574;22;20018;-62
2023/07/30 10:21:26;;;;;;;7.05;2.08;;;;;;;;;;6248168;22;20016;-62
2023/07/30 10:24:04;;;;;;;11.52;2.35;;;;;;;;;;6275196;22;20012;-62
2023/07/30 10:26:31;;;;;;;5.70;1.80;;;;;;;;;;6247135;22;20019;-62
2023/07/30 10:29:35;;;;;;;9.52;1.83;;;17.50;99.90;;;;;;6274665;22;20018;-62
2023/07/30 10:32:02;;;;;;;9.25;1.45;;;;;;;;;;6120230;23;20028;-62
2023/07/30 10:34:45;;;;;;;14.82;1.65;;;;;;;;;;6121805;23;20026;-62
2023/07/30 10:37:11;;;;;;;4.57;1.30;;;;;;;;;;6120748;23;20022;-63
2023/07/30 10:39:37;;;;;;;8.60;1.70;;;;;;;;;;6121341;23;20021;-62
2023/07/30 10:42:03;;;;;;;9.20;1.33;;;;;;;;;;6121583;23;20017;-62
2023/07/30 10:44:33;;;;;;;7.60;1.40;;;19.00;99.90;;;;;;6121562;23;20347;-62
2023/07/30 10:47:00;;;;;;;10.52;1.88;;;19.10;99.90;;;;;;6119964;23;20506;-63
2023/07/30 10:49:26;;;;;;;6.05;1.35;;;19.70;99.90;;;;;;6120020;23;20028;-63
2023/07/30 10:52:02;;;;;;;9.30;1.73;;;19.60;99.90;;;;;;6121761;23;20355;-63
2023/07/30 10:54:33;;;;;;;8.30;1.90;;;20.00;99.90;;;;;;6121906;23;20017;-63
2023/07/30 10:57:00;;;;;;;4.47;1.10;;;;;;;;;;6120659;23;20014;-63
2023/07/30 10:59:26;;;;;;;8.02;1.50;;;;;;;;;;6121810;23;20028;-63
2023/07/30 11:01:52;;;;;;;13.20;1.73;;;20.10;99.90;;;;;;6141069;22;20026;-62
2023/07/30 11:04:21;;;;;;;6.60;1.00;;;19.90;99.90;;;;;;6247512;22;20016;-62
2023/07/30 11:06:49;;;;;;;6.65;1.50;;;;;;;;;;6247875;22;20015;-62
2023/07/30 11:09:25;;;;;;;4.85;1.60;;;;;;;;;;6274508;22;20375;-63
2023/07/30 11:11:51;;;;;;;9.52;1.90;;;;;;;;;;6247449;22;20336;-62
2023/07/30 11:14:19;;;;;;;10.10;1.77;;;19.80;99.90;;;;;;6247258;22;20367;-62
2023/07/30 11:16:50;;;;;;;17.63;2.10;;;;;;;;;;6273414;22;20011;-62
2023/07/30 11:19:17;;;;;;;6.57;1.20;;;20.40;99.90;;;;;;6273883;22;20518;-63
2023/07/30 11:21:48;;;;;;;14.88;2.33;;;20.30;99.90;;;;;;6247975;22;20048;-62
2023/07/30 11:24:14;;;;;;;7.88;1.27;;;;;;;;;;6274338;22;20077;-64
2023/07/30 11:26:40;;;;;;;12.27;1.77;;;;;;;;;;6274852;22;20493;-63
2023/07/30 11:29:19;;;;;;;9.80;1.70;;;;;;;;;;6274620;22;20027;-62
2023/07/30 11:31:45;;;;;;;9.15;1.60;;;;;;;;;;6275747;22;20070;-62
2023/07/30 11:34:12;;;;;;;7.35;1.30;;;;;;;;;;6276426;22;20094;-64
2023/07/30 11:36:38;;;;;;;7.85;1.60;;;;;;;;;;6249016;22;20019;-65
2023/07/30 11:39:04;;;;;;;8.57;2.28;;;;;;;;;;6248455;22;20345;-65
2023/07/30 11:41:30;;;;;;;8.70;1.70;;;;;;;;;;6222992;22;20058;-67
2023/07/30 11:43:57;;;;;;;6.22;1.52;;;;;;;;;;6274990;22;20023;-66
2023/07/30 11:46:23;;;;;;;10.30;2.30;;;;;;;;;;6249232;22;20137;-66
2023/07/30 11:48:50;;;;;;;11.13;1.50;;;;;;;;;;6224102;22;20028;-64
2023/07/30 11:51:29;;;;;;;6.35;1.75;;;;;;;;;;6276409;22;20081;-64
2023/07/30 11:53:56;;;;;;;7.90;2.50;;;;;;;;;;6248789;22;20024;-65
2023/07/30 11:56:22;;;;;;;7.10;1.75;;;;;;;;;;6249455;22;20020;-65
2023/07/30 11:58:49;;;;;;;9.20;2.00;;;;;;;;;;6223773;22;20415;-65
2023/07/30 12:01:16;;;;;;;10.30;1.65;;;;;;;;;;6248965;22;20023;-64
2023/07/30 12:03:42;;;;;;;8.70;1.55;;;;;;;;;;6276883;22;20426;-64
2023/07/30 12:06:10;;;;;;;5.88;1.60;;;;;;;;;;6248870;22;20051;-63
2023/07/30 12:08:36;;;;;;;8.40;1.50;;;;;;;;;;6274742;22;20439;-62
2023/07/30 12:11:06;;;;;;;10.15;2.05;;;;;;;;;;6275127;22;20015;-63
2023/07/30 12:13:45;;;;;;;7.47;1.75;;;;;;;;;;6249012;22;20027;-63
2023/07/30 12:16:12;;;;;;;6.13;1.15;;;;;;;;;;6275711;22;20039;-63
2023/07/30 12:18:39;;;;;;;7.88;1.60;;;;;;;;;;6223583;22;20047;-63
2023/07/30 12:21:07;;;;;;;7.97;1.50;;;;;;;;;;6275969;22;20016;-63
2023/07/30 12:23:33;;;;;;;4.72;1.20;;;;;;;;;;6276477;22;20020;-62
2023/07/30 12:26:00;;;;;;;7.20;2.25;;;;;;;;;;6247769;22;20019;-62
2023/07/30 12:28:26;;;;;;;7.95;1.65;;;;;;;;;;6223509;22;20024;-62
2023/07/30 12:30:52;;;;;;;10.55;1.55;;;;;;;;;;6249283;22;20094;-61
2023/07/30 12:33:18;;;;;;;9.75;2.92;;;;;;;;;;6276130;22;20617;-61
2023/07/30 12:35:44;;;;;;;8.93;2.08;;;;;;;;;;6276350;22;20027;-62
2023/07/30 12:38:10;;;;;;;6.85;1.52;;;;;;;;;;6249063;22;20091;-61
2023/07/30 12:40:36;;;;;;;11.25;1.85;;;;;;;;;;6249419;22;20031;-62
2023/07/30 12:43:03;;;;;;;9.15;1.75;;;;;;;;;;6275469;22;20051;-62
2023/07/30 12:45:30;;;;;;;16.33;1.90;;;;;;;;;;6275958;22;20065;-62
2023/07/30 12:47:56;;;;;;;6.05;2.00;;;;;;;;;;6248995;22;20099;-61
2023/07/30 12:50:22;;;;;;;4.20;1.27;;;;;;;;;;6223303;22;20051;-62
2023/07/30 12:52:48;;;;;;;7.88;1.73;;;;;;;;;;6275582;22;20077;-62
2023/07/30 12:55:15;;;;;;;6.95;1.85;;;;;;;;;;6275910;22;20019;-62
2023/07/30 12:57:41;;;;;;;5.78;1.90;;;;;;;;;;6275570;22;20020;-62
2023/07/30 13:00:07;;;;;;;7.97;1.50;;;;;;;;;;6275673;22;20022;-62
2023/07/30 13:02:34;;;;;;;8.23;1.75;;;;;;;;;;6276046;22;20031;-62
2023/07/30 13:05:00;;;;;;;8.13;1.23;;;;;;;;;;6248533;22;20024;-62
2023/07/30 13:07:26;;;;;;;5.00;1.40;;;;;;;;;;6275836;22;20081;-63
2023/07/30 13:10:03;;;;;;;12.57;1.35;;;;;;;;;;6223651;22;20070;-62
2023/07/30 13:12:29;;;;;;;8.23;1.38;;;;;;;;;;6248589;22;20074;-63
2023/07/30 13:14:55;;;;;;;16.65;2.25;;;;;;;;;;6276002;22;20020;-63
2023/07/30 13:17:21;;;;;;;9.73;1.63;;;;;;;;;;6248549;22;20357;-62
2023/07/30 13:19:47;;;;;;;7.82;2.38;;;;;;;;;;6248725;22;20020;-62
2023/07/30 13:22:12;;;;;;;9.32;1.65;;;20.50;99.90;;;;;;6274714;22;20467;-62
2023/07/30 13:24:39;;;;;;;4.10;1.08;;;;;;;;;;6275817;22;20019;-61
2023/07/30 13:27:05;;;;;;;5.60;0.88;;;;;;;;;;6222830;22;20023;-62
2023/07/30 13:29:31;;;;;;;6.60;1.40;;;;;;;;;;6275842;22;20050;-62
2023/07/30 13:31:58;;;;;;;8.23;1.30;;;;;;;;;;6248571;22;20039;-62
2023/07/30 13:34:24;;;;;;;6.32;1.02;;;;;;;;;;6275287;22;20016;-62
2023/07/30 13:36:50;;;;;;;6.03;1.38;;;;;;;;;;6275650;22;20023;-61
2023/07/30 13:39:16;;;;;;;5.07;1.58;;;19.40;99.90;;;;;;6248149;22;20019;-61
2023/07/30 13:41:42;;;;;;;5.70;1.27;;;19.60;99.90;;;;;;6275285;22;20337;-61
2023/07/30 13:44:10;;;;;;;7.30;1.52;;;;;;;;;;6247850;22;20016;-62
2023/07/30 13:46:37;;;;;;;7.63;1.35;;;;;;;;;;6275661;22;20031;-62
2023/07/30 13:49:03;;;;;;;7.45;1.40;;;;;;;;;;6222286;22;20016;-63
2023/07/30 13:51:31;;;;;;;8.57;1.42;;;;;;;;;;6247835;22;20031;-62
2023/07/30 13:54:01;;;;;;;9.43;1.73;;;;;;;;;;6222655;22;20019;-62
2023/07/30 13:56:28;;;;;;;5.77;1.53;;;;;;;;;;6247951;22;20386;-62
2023/07/30 13:58:54;;;;;;;9.27;1.80;;;;;;;;;;6275121;22;20366;-62
2023/07/30 14:01:19;;;;;;;7.38;1.73;;;19.90;99.90;;;;;;6248196;22;20099;-63
2023/07/30 14:03:46;;;;;;;5.90;1.33;;;;;;;;;;6275797;22;20433;-62
2023/07/30 14:06:12;;;;;;;8.20;1.17;;;;;;;;;;6274128;22;20349;-63
2023/07/30 14:08:38;;;;;;;9.52;1.25;;;;;;;;;;6275211;22;20023;-65
2023/07/30 14:11:05;;;;;;;5.28;1.40;;;;;;;;;;6222511;22;20015;-65
2023/07/30 14:13:31;;;;;;;2.88;1.05;;;;;;;;;;6223091;22;20094;-64
2023/07/30 14:15:57;;;;;;;7.18;1.75;;;;;;;;;;6248406;22;20132;-62
2023/07/30 14:18:25;;;;;;;7.63;1.25;;;;;;;;;;6274847;22;20019;-62
2023/07/30 14:20:51;;;;;;;6.07;1.45;;;;;;;;;;6274944;22;20468;-62
2023/07/30 14:23:17;;;;;;;12.98;2.05;;;;;;;;;;6274359;22;20517;-61